Latest Weather Observations for TFS A

IDT60801

Issued at 1:41 am EST Monday 27 May 2024 (issued every 10 minutes, with the page automatically refreshed every 10 minutes)

About weather observations | Map of weather stations | Latest weather observations for TAS | Other Formats
Station Details ID: 250089 Name: TAS FIRE SERVICE PORTABLE A Lat: -41.08 Lon: 145.94 Height: 359.0 m

Portable automatic weather stations (PAWS) are operated by other organisations, such as Fire and Emergency Services, and are included here by agreement. Portable stations may be deployed to a location for a short period and their location may be subject to change without notice. Wind observations from these stations are provided from heights of either three (3) or ten (10) metres above ground level (AGL).

Data from the previous 72 hours. | See also: Recent months for locations in Tasmania
Date/Time
EST
Temp
°C
App
Temp
°C
Dew
Point
°C
Rel
Hum
%
Delta-T
°C
Wind Press
QNH
hPa
Press
MSL
hPa
Rain since
9am
mm
Dir  Spd
km/h
Gust
km/h
Spd
kts
Gust
kts
27/01:30am 8.6 6.8 8.0 96 0.3 SW 7 7 4 4 - - 1.6
27/01:20am 9.1 7.4 8.5 96 0.3 WSW 7 9 4 5 - - 1.4
27/01:10am 8.8 7.1 8.4 97 0.2 WSW 7 9 4 5 - - 1.4
27/01:00am 8.7 7.0 8.3 97 0.2 WSW 7 9 4 5 - - 1.4
27/12:50am 8.6 6.8 8.1 97 0.2 SW 7 7 4 4 - - 1.4
27/12:40am 8.7 7.2 8.3 97 0.2 SSW 6 7 3 4 - - 1.4
27/12:30am 8.8 7.3 8.4 97 0.2 SW 6 7 3 4 - - 1.4
27/12:20am 8.7 8.0 8.5 99 0.1 W 2 6 1 3 - - 1.4
27/12:10am 8.7 7.2 8.4 98 0.1 SW 6 6 3 3 - - 1.4
27/12:00am 8.5 6.9 8.2 98 0.1 SSW 6 7 3 4 - - 1.4
 
Date/Time
EST
Temp
°C
App
Temp
°C
Dew
Point
°C
Rel
Hum
%
Delta-T
°C
Wind Press
QNH
hPa
Press
MSL
hPa
Rain since
9am
mm
Dir  Spd
km/h
Gust
km/h
Spd
kts
Gust
kts
26/11:50pm 8.2 7.7 7.9 98 0.1 CALM 0 6 0 3 - - 1.4
26/11:40pm 8.6 8.2 8.2 97 0.2 CALM 0 0 0 0 - - 1.4
26/11:30pm 8.7 8.3 8.3 97 0.2 CALM 0 0 0 0 - - 1.4
26/11:20pm 8.8 8.1 8.4 97 0.2 SW 2 4 1 2 - - 1.4
26/11:10pm 9.1 8.4 8.7 97 0.2 SW 2 4 1 2 - - 1.4
26/11:00pm 9.1 8.1 8.7 97 0.2 SSW 4 4 2 2 - - 1.4
26/10:50pm 9.2 8.2 8.8 97 0.2 S 4 4 2 2 - - 1.4
26/10:40pm 9.3 8.7 8.9 97 0.2 SW 2 4 1 2 - - 1.4
26/10:30pm 9.3 8.3 8.9 97 0.2 SSW 4 6 2 3 - - 1.4
26/10:20pm 9.4 8.4 9.0 97 0.2 SW 4 4 2 2 - - 1.4
26/10:10pm 9.4 8.0 8.9 97 0.3 SW 6 6 3 3 - - 1.4
26/10:00pm 9.6 8.3 9.1 97 0.3 SW 6 7 3 4 - - 1.4
26/09:50pm 9.4 8.0 8.9 97 0.3 SW 6 6 3 3 - - 1.4
26/09:40pm 9.7 8.8 9.3 97 0.2 SSW 4 6 2 3 - - 1.4
26/09:30pm 9.6 8.3 9.2 97 0.2 SW 6 6 3 3 - - 1.4
26/09:20pm 9.4 8.4 9.0 97 0.2 SSW 4 4 2 2 - - 1.4
26/09:10pm 9.3 8.3 8.9 97 0.2 S 4 4 2 2 - - 1.4
26/09:00pm 9.4 8.0 9.0 97 0.2 SSW 6 7 3 4 - - 1.4
26/08:50pm 9.2 8.2 8.8 97 0.2 S 4 6 2 3 - - 1.4
26/08:40pm 9.4 8.0 8.9 97 0.3 ESE 6 6 3 3 - - 1.4
26/08:30pm 9.6 8.7 9.2 97 0.2 S 4 6 2 3 - - 1.4
26/08:20pm 9.5 8.2 9.2 98 0.2 SSW 6 6 3 3 - - 1.4
26/08:10pm 9.5 8.6 9.1 97 0.2 S 4 6 2 3 - - 1.4
26/08:00pm 9.4 8.8 9.1 98 0.2 SE 2 6 1 3 - - 1.4
26/07:50pm 9.4 8.8 9.0 97 0.2 ESE 2 6 1 3 - - 1.4
26/07:40pm 9.4 8.1 9.1 98 0.2 SSE 6 7 3 4 - - 1.4
26/07:30pm 9.4 8.1 9.1 98 0.2 SE 6 9 3 5 - - 1.4
26/07:20pm 9.5 8.2 9.1 97 0.2 SSE 6 7 3 4 - - 1.4
26/07:10pm 9.5 8.6 9.2 98 0.2 SSE 4 6 2 3 - - 1.4
26/07:00pm 9.5 8.2 9.1 97 0.2 ESE 6 7 3 4 - - 1.4
26/06:50pm 9.4 8.0 9.0 97 0.2 E 6 7 3 4 - - 1.4
26/06:40pm 9.4 8.0 9.0 97 0.2 E 6 9 3 5 - - 1.4
26/06:30pm 9.4 7.8 8.9 97 0.3 ESE 7 9 4 5 - - 1.4
26/06:20pm 9.4 8.0 8.9 97 0.3 SSE 6 7 3 4 - - 1.2
26/06:10pm 9.5 8.1 8.9 96 0.3 S 6 7 3 4 - - 0.8
26/06:00pm 9.5 8.1 8.9 96 0.3 S 6 6 3 3 - - 0.4
26/05:50pm 9.6 8.2 8.9 95 0.4 S 6 7 3 4 - - 0.4
26/05:40pm 9.8 8.8 8.7 93 0.5 S 4 6 2 3 - - 0.2
26/05:30pm 10.1 9.0 8.6 90 0.7 SW 4 6 2 3 - - 0.0
26/05:20pm 10.5 9.1 8.7 89 0.9 WSW 6 6 3 3 - - 0.0
26/05:10pm 10.9 9.3 8.0 82 1.4 S 6 6 3 3 - - 0.0
26/05:00pm 11.2 9.6 7.9 80 1.6 SE 6 6 3 3 - - 0.0
26/04:50pm 11.5 9.8 7.6 77 1.9 SE 6 6 3 3 - - 0.0
26/04:40pm 11.7 9.9 7.1 73 2.2 ESE 6 6 3 3 - - 0.0
26/04:30pm 11.8 10.4 7.2 73 2.3 ESE 4 7 2 4 - - 0.0
26/04:20pm 11.9 10.1 7.3 73 2.3 E 6 7 3 4 - - 0.0
26/04:10pm 11.9 10.1 7.2 73 2.3 ENE 6 7 3 4 - - 0.0
26/04:00pm 12.0 10.3 7.4 73 2.3 ENE 6 7 3 4 - - 0.0
26/03:50pm 12.1 10.3 7.1 71 2.5 ENE 6 7 3 4 - - 0.0
26/03:40pm 12.2 10.3 6.7 69 2.7 NE 6 7 3 4 - - 0.0
26/03:30pm 12.3 10.2 5.9 65 3.1 ENE 6 7 3 4 - - 0.0
26/03:20pm 12.4 10.4 6.3 66 2.9 NE 6 7 3 4 - - 0.0
26/03:10pm 12.5 10.4 6.6 67 2.9 NNE 7 9 4 5 - - 0.0
26/03:00pm 12.8 10.7 6.5 65 3.1 NE 7 11 4 6 - - 0.0
26/02:50pm 12.9 10.8 6.0 63 3.3 NE 6 7 3 4 - - 0.0
26/02:40pm 12.7 10.6 6.5 66 3.0 ENE 7 7 4 4 - - 0.0
26/02:30pm 12.6 10.6 6.4 66 3.0 NE 6 7 3 4 - - 0.0
26/02:20pm 12.6 10.6 6.3 65 3.0 NE 6 7 3 4 - - 0.0
26/02:10pm 12.7 10.4 5.7 62 3.3 NE 7 9 4 5 - - 0.0
26/02:00pm 12.8 10.1 5.8 62 3.4 NE 9 11 5 6 - - 0.0
26/01:50pm 12.9 10.1 5.0 58 3.7 NE 9 9 5 5 - - 0.0
26/01:40pm 12.8 10.1 5.4 60 3.5 NE 9 13 5 7 - - 0.0
26/01:30pm 12.8 9.8 5.9 63 3.3 NE 11 13 6 7 - - 0.0
26/01:20pm 12.8 9.7 5.6 61 3.4 ENE 11 11 6 6 - - 0.0
26/01:10pm 12.6 9.4 4.9 59 3.6 ENE 11 11 6 6 - - 0.0
26/01:00pm 13.0 9.7 4.5 56 4.0 ENE 11 13 6 7 - - 0.0
26/12:50pm 13.5 10.6 4.5 54 4.2 ENE 9 11 5 6 - - 0.0
26/12:40pm 13.5 10.4 3.8 52 4.5 NE 9 13 5 7 - - 0.0
26/12:30pm 13.5 10.5 3.9 52 4.4 ENE 9 11 5 6 - - 0.0
26/12:20pm 13.3 10.3 4.0 53 4.3 ENE 9 13 5 7 - - 0.0
26/12:10pm 13.2 10.0 3.3 51 4.5 ENE 9 13 5 7 - - 0.0
26/12:00pm 13.2 10.1 3.6 52 4.4 ENE 9 13 5 7 - - 0.0
26/11:50am 13.2 9.8 3.9 53 4.3 E 11 13 6 7 - - 0.0
26/11:40am 13.3 9.8 3.5 51 4.5 E 11 13 6 7 - - 0.0
26/11:30am 13.2 9.8 3.8 53 4.3 E 11 13 6 7 - - 0.0
26/11:20am 13.2 9.7 3.5 52 4.4 ENE 11 15 6 8 - - 0.0
26/11:10am 13.5 10.1 4.0 52 4.4 E 11 15 6 8 - - 0.0
26/11:00am 13.7 10.4 4.7 54 4.2 E 11 11 6 6 - - 0.0
26/10:50am 13.5 10.7 5.1 57 4.0 E 9 11 5 6 - - 0.0
26/10:40am 13.2 10.3 4.9 57 3.9 E 9 9 5 5 - - 0.0
26/10:30am 13.0 10.4 4.2 55 4.1 E 7 9 4 5 - - 0.0
26/10:20am 12.6 10.4 5.1 60 3.5 ESE 6 7 3 4 - - 0.0
26/10:10am 12.0 9.6 5.1 62 3.2 SSE 7 7 4 4 - - 0.0
26/10:00am 11.5 9.0 4.7 63 3.2 S 7 7 4 4 - - 0.0
26/09:50am 11.1 8.6 5.0 66 2.8 S 7 7 4 4 - - 0.0
26/09:40am 10.8 8.3 5.0 67 2.7 S 7 7 4 4 - - 0.0
26/09:30am 10.3 7.8 4.8 68 2.5 S 7 9 4 5 - - 0.0
26/09:20am 10.0 7.5 4.6 69 2.5 S 7 9 4 5 - - 0.0
26/09:10am 9.8 7.4 4.2 68 2.5 SE 6 7 3 4 - - 0.0
26/09:00am 9.2 6.8 4.1 70 2.3 SSE 6 7 3 4 - - 0.0
26/08:50am 8.8 6.1 3.9 71 2.2 SSE 7 7 4 4 - - 0.0
26/08:40am 8.2 5.5 3.7 73 2.0 SSE 7 7 4 4 - - 0.0
26/08:30am 7.5 4.7 3.4 75 1.8 SSE 7 7 4 4 - - 0.0
26/08:20am 7.6 4.4 3.3 74 1.9 SSE 9 9 5 5 - - 0.0
26/08:10am 7.5 4.3 3.0 73 1.9 SSE 9 9 5 5 - - 0.0
26/08:00am 7.1 3.9 3.1 76 1.7 SSE 9 9 5 5 - - 0.0
26/07:50am 6.7 3.9 3.0 77 1.6 SSE 7 9 4 5 - - 0.0
26/07:40am 6.3 3.1 2.9 79 1.4 SSE 9 9 5 5 - - 0.0
26/07:30am 6.5 3.3 3.0 78 1.5 SSE 9 9 5 5 - - 0.0
26/07:20am 6.6 3.8 3.0 78 1.5 SSE 7 7 4 4 - - 0.0
26/07:10am 6.7 3.9 3.2 78 1.5 SSE 7 9 4 5 - - 0.0
26/07:00am 6.8 4.2 3.4 79 1.5 SSE 6 6 3 3 - - 0.0
26/06:50am 6.8 4.2 3.4 79 1.5 SSE 6 7 3 4 - - 0.0
26/06:40am 6.9 4.4 3.5 79 1.5 SSE 6 7 3 4 - - 0.0
26/06:30am 7.0 4.4 3.4 78 1.6 SSE 6 7 3 4 - - 0.0
26/06:20am 7.0 4.3 3.6 79 1.5 SE 7 9 4 5 - - 0.0
26/06:10am 7.2 4.5 3.8 79 1.5 SSE 7 7 4 4 - - 0.0
26/06:00am 7.2 4.5 3.5 77 1.6 SSE 7 9 4 5 - - 0.0
26/05:50am 7.1 4.0 3.6 78 1.5 SSE 9 9 5 5 - - 0.0
26/05:40am 6.8 3.7 3.5 79 1.4 SSE 9 9 5 5 - - 0.0
26/05:30am 6.7 3.5 3.3 79 1.5 SSE 9 11 5 6 - - 0.0
26/05:20am 6.6 3.8 3.4 80 1.4 SSE 7 9 4 5 - - 0.0
26/05:10am 6.4 3.6 3.3 80 1.3 SSE 7 9 4 5 - - 0.0
26/05:00am 6.3 3.5 3.2 80 1.3 S 7 7 4 4 - - 0.0
26/04:50am 6.4 3.6 3.2 80 1.4 SSE 7 9 4 5 - - 0.0
26/04:40am 6.3 3.1 3.3 81 1.3 SSE 9 9 5 5 - - 0.0
26/04:30am 6.4 3.2 3.3 80 1.3 SSE 9 9 5 5 - - 0.0
26/04:20am 6.4 3.2 3.3 80 1.3 SSE 9 11 5 6 - - 0.0
26/04:10am 6.2 3.0 3.3 82 1.2 SSE 9 9 5 5 - - 0.0
26/04:00am 6.2 3.4 3.3 82 1.2 SSE 7 9 4 5 - - 0.0
26/03:50am 6.3 3.5 3.3 81 1.3 SSE 7 9 4 5 - - 0.0
26/03:40am 6.3 3.1 3.3 81 1.3 SSE 9 9 5 5 - - 0.0
26/03:30am 6.1 3.3 3.3 82 1.2 S 7 9 4 5 - - 0.0
26/03:20am 6.1 3.3 3.4 83 1.2 SSE 7 9 4 5 - - 0.0
26/03:10am 6.2 3.4 3.4 82 1.2 SSE 7 9 4 5 - - 0.0
26/03:00am 6.1 3.3 3.4 83 1.2 S 7 9 4 5 - - 0.0
26/02:50am 6.1 3.3 3.4 83 1.2 S 7 9 4 5 - - 0.0
26/02:40am 6.1 3.3 3.4 83 1.2 S 7 7 4 4 - - 0.0
26/02:30am 6.2 3.5 3.5 83 1.2 S 7 9 4 5 - - 0.0
26/02:20am 6.3 3.2 3.6 83 1.2 SSE 9 11 5 6 - - 0.0
26/02:10am 6.4 3.3 3.6 82 1.2 SSE 9 11 5 6 - - 0.0
26/02:00am 6.3 3.2 3.6 83 1.2 SSE 9 9 5 5 - - 0.0
26/01:50am 6.3 3.2 3.7 83 1.1 SSE 9 9 5 5 - - 0.0
26/01:40am 6.1 3.4 3.7 84 1.0 S 7 9 4 5 - - 0.0
26/01:30am 6.2 3.5 3.7 84 1.1 SSE 7 9 4 5 - - 0.0
26/01:20am 6.3 3.2 3.8 84 1.1 S 9 9 5 5 - - 0.0
26/01:10am 6.3 3.6 3.8 84 1.1 S 7 9 4 5 - - 0.0
26/01:00am 6.3 3.6 3.8 84 1.1 SSE 7 9 4 5 - - 0.0
26/12:50am 6.2 3.5 3.8 85 1.0 SSE 7 9 4 5 - - 0.0
26/12:40am 6.3 3.2 3.8 84 1.1 SSE 9 11 5 6 - - 0.0
26/12:30am 6.5 3.8 3.9 83 1.1 SSE 7 9 4 5 - - 0.0
26/12:20am 6.5 3.9 4.0 84 1.1 S 7 9 4 5 - - 0.0
26/12:10am 6.6 4.0 4.1 84 1.1 S 7 7 4 4 - - 0.0
26/12:00am 6.5 3.9 4.2 85 1.0 S 7 7 4 4 - - 0.0
 
Date/Time
EST
Temp
°C
App
Temp
°C
Dew
Point
°C
Rel
Hum
%
Delta-T
°C
Wind Press
QNH
hPa
Press
MSL
hPa
Rain since
9am
mm
Dir  Spd
km/h
Gust
km/h
Spd
kts
Gust
kts
25/11:50pm 6.4 3.8 4.2 86 1.0 SSE 7 9 4 5 - - 0.0
25/11:40pm 6.5 3.9 4.2 85 1.0 S 7 9 4 5 - - 0.0
25/11:30pm 6.5 3.9 4.3 86 1.0 S 7 7 4 4 - - 0.0
25/11:20pm 6.7 4.1 4.4 85 1.0 S 7 9 4 5 - - 0.0
25/11:10pm 6.7 4.1 4.4 85 1.0 S 7 9 4 5 - - 0.0
25/11:00pm 6.7 4.2 4.5 86 1.0 S 7 9 4 5 - - 0.0
25/10:50pm 6.7 3.8 4.6 86 0.9 S 9 11 5 6 - - 0.0
25/10:40pm 6.7 3.8 4.6 86 0.9 S 9 9 5 5 - - 0.0
25/10:30pm 6.5 4.0 4.6 88 0.8 S 7 7 4 4 - - 0.0
25/10:20pm 6.8 4.3 4.7 86 0.9 S 7 7 4 4 - - 0.0
25/10:10pm 6.7 4.2 4.8 88 0.8 S 7 7 4 4 - - 0.0
25/10:00pm 6.7 4.2 4.8 88 0.8 S 7 7 4 4 - - 0.0
25/09:50pm 6.9 4.4 4.9 87 0.9 S 7 7 4 4 - - 0.0
25/09:40pm 6.9 4.4 5.0 88 0.9 SSE 7 9 4 5 - - 0.0
25/09:30pm 6.9 4.4 5.0 88 0.9 S 7 7 4 4 - - 0.0
25/09:20pm 7.1 4.6 5.0 86 0.9 S 7 7 4 4 - - 0.0
25/09:10pm 7.2 4.8 5.1 86 0.9 SSE 7 9 4 5 - - 0.0
25/09:00pm 7.2 4.8 5.2 87 0.9 SSE 7 7 4 4 - - 0.0
25/08:50pm 7.0 4.6 5.1 88 0.9 SSE 7 7 4 4 - - 0.0
25/08:40pm 6.9 4.4 5.0 88 0.9 SSE 7 7 4 4 - - 0.0
25/08:30pm 7.0 4.6 5.1 88 0.9 S 7 7 4 4 - - 0.0
25/08:20pm 7.1 4.7 5.1 87 0.9 S 7 7 4 4 - - 0.0
25/08:10pm 7.1 4.7 5.2 88 0.9 S 7 7 4 4 - - 0.0
25/08:00pm 7.3 4.9 5.1 86 1.0 S 7 7 4 4 - - 0.0
25/07:50pm 7.2 4.8 5.2 87 0.9 S 7 7 4 4 - - 0.0
25/07:40pm 7.0 4.6 5.2 88 0.8 S 7 9 4 5 - - 0.0
25/07:30pm 7.2 4.8 5.1 86 0.9 S 7 7 4 4 - - 0.0
25/07:20pm 7.3 5.0 5.0 85 1.0 S 6 7 3 4 - - 0.0
25/07:10pm 7.6 6.1 5.1 84 1.1 SSE 2 7 1 4 - - 0.0
25/07:00pm 7.8 6.7 5.0 82 1.3 CALM 0 0 0 0 - - 0.0
25/06:50pm 7.9 6.8 4.9 81 1.4 CALM 0 0 0 0 - - 0.0
25/06:40pm 7.9 6.8 4.9 81 1.4 CALM 0 0 0 0 - - 0.0
25/06:30pm 7.9 6.4 5.0 82 1.3 SSE 2 6 1 3 - - 0.0
25/06:20pm 8.1 5.8 5.0 81 1.4 SSE 6 7 3 4 - - 0.0
25/06:10pm 8.7 6.3 5.2 79 1.6 S 7 7 4 4 - - 0.0
25/06:00pm 9.2 7.0 5.1 75 1.9 S 6 7 3 4 - - 0.0
25/05:50pm 9.2 7.3 5.0 75 1.9 S 4 6 2 3 - - 0.0
25/05:40pm 9.0 7.5 5.2 77 1.7 SSW 2 4 1 2 - - 0.0
25/05:30pm 8.6 7.6 5.4 80 1.5 CALM 0 0 0 0 - - 0.0
25/05:20pm 8.9 7.8 5.1 77 1.7 CALM 0 0 0 0 - - 0.0
25/05:10pm 9.4 8.3 5.1 74 2.0 CALM 0 0 0 0 - - 0.0
25/05:00pm 9.6 8.6 5.4 75 1.9 CALM 0 0 0 0 - - 0.0
25/04:50pm 10.3 8.8 5.2 70 2.4 NNE 2 4 1 2 - - 0.0
25/04:40pm 10.9 9.5 5.5 69 2.5 NNE 2 4 1 2 - - 0.0
25/04:30pm 11.6 10.6 5.8 67 2.8 CALM 0 0 0 0 - - 0.0
25/04:20pm 11.9 10.5 5.7 66 2.9 NE 2 4 1 2 - - 0.0
25/04:10pm 12.0 10.2 5.6 65 3.0 NNE 4 6 2 3 - - 0.0
25/04:00pm 12.1 9.9 5.4 63 3.2 NE 6 7 3 4 - - 0.0
25/03:50pm 12.4 10.3 5.7 63 3.2 NNE 6 7 3 4 - - 0.0
25/03:40pm 12.7 10.6 5.8 63 3.3 NNE 6 6 3 3 - - 0.0
25/03:30pm 12.8 10.7 5.9 63 3.3 NNE 6 7 3 4 - - 0.0
25/03:20pm 13.2 11.1 5.9 61 3.5 NNE 6 6 3 3 - - 0.0
25/03:10pm 13.3 11.6 5.7 60 3.6 NNE 4 7 2 4 - - 0.0
25/03:00pm 13.3 11.2 5.6 59 3.7 NNE 6 9 3 5 - - 0.0
25/02:50pm 13.3 11.1 5.3 58 3.8 NE 6 9 3 5 - - 0.0
25/02:40pm 13.3 11.1 5.4 59 3.8 NNE 6 7 3 4 - - 0.0
25/02:30pm 13.4 11.3 5.9 60 3.6 NNE 6 9 3 5 - - 0.0
25/02:20pm 13.2 10.9 5.9 61 3.5 NE 7 9 4 5 - - 0.0
25/02:10pm 13.1 10.3 5.0 58 3.8 NE 9 13 5 7 - - 0.0
25/02:00pm 13.3 10.6 5.4 59 3.8 ENE 9 11 5 6 - - 0.0
25/01:50pm 13.2 10.4 5.2 58 3.8 ENE 9 11 5 6 - - 0.0
25/01:40pm 13.2 10.4 5.1 58 3.8 NE 9 11 5 6 - - 0.0
25/01:30pm 13.3 10.5 5.3 58 3.8 NE 9 11 5 6 - - 0.0
25/01:20pm 13.2 10.3 4.7 56 4.0 NE 9 11 5 6 - - 0.0
25/01:10pm 13.3 10.5 5.3 58 3.8 NE 9 13 5 7 - - 0.0
25/01:00pm 13.2 10.4 5.3 58 3.8 NE 9 13 5 7 - - 0.0
25/12:50pm 13.4 10.7 5.8 60 3.7 ENE 9 13 5 7 - - 0.0
25/12:40pm 13.4 10.7 5.6 59 3.7 ENE 9 11 5 6 - - 0.0
25/12:30pm 13.3 10.2 5.5 59 3.7 NE 11 15 6 8 - - 0.0
25/12:20pm 13.1 10.2 4.9 57 3.9 ENE 9 11 5 6 - - 0.0
25/12:10pm 13.3 10.0 4.6 55 4.1 NE 11 13 6 7 - - 0.0
25/12:00pm 13.2 10.0 4.9 57 3.9 ENE 11 13 6 7 - - 0.0
25/11:50am 13.5 10.4 5.7 59 3.8 ENE 11 15 6 8 - - 0.0
25/11:40am 13.5 10.2 4.7 55 4.1 ENE 11 15 6 8 - - 0.0
25/11:30am 13.2 10.4 5.3 58 3.8 ESE 9 13 5 7 - - 0.0
25/11:20am 13.1 9.8 4.7 56 3.9 E 11 13 6 7 - - 0.0
25/11:10am 13.0 10.2 5.1 58 3.7 ENE 9 13 5 7 - - 0.0
25/11:00am 12.9 9.8 5.6 61 3.5 E 11 13 6 7 - - 0.0
25/10:50am 12.8 10.1 5.4 60 3.5 E 9 13 5 7 - - 0.0
25/10:40am 12.6 9.5 5.6 62 3.3 E 11 13 6 7 - - 0.0
25/10:30am 12.3 9.1 5.2 62 3.3 E 11 13 6 7 - - 0.0
25/10:20am 11.9 8.8 5.4 64 3.1 ENE 11 13 6 7 - - 0.0
25/10:10am 12.0 9.2 5.1 62 3.2 E 9 11 5 6 - - 0.0
25/10:00am 11.9 8.8 5.4 64 3.1 E 11 13 6 7 - - 0.0
25/09:50am 11.5 8.6 6.3 70 2.5 - 11 13 6 7 - - 0.0
25/09:40am 11.3 8.6 5.6 68 2.7 E 9 11 5 6 - - 0.0
25/09:30am 10.6 7.8 5.3 70 2.5 ESE 9 11 5 6 - - 0.0
25/09:20am 9.7 7.3 5.4 74 2.0 SSE 7 9 4 5 - - 0.0
25/09:10am 9.1 6.8 5.5 78 1.7 SSE 7 9 4 5 - - 0.0
25/09:00am 8.6 6.2 5.2 79 1.6 SSE 7 9 4 5 - - 0.0
25/08:50am 7.8 5.3 4.8 81 1.4 SSE 7 7 4 4 - - 0.0
25/08:40am 7.1 4.5 4.4 83 1.2 S 7 7 4 4 - - 0.0
25/08:30am 7.2 4.8 4.5 83 1.2 SSE 6 7 3 4 - - 0.0
25/08:20am 7.0 4.4 4.4 83 1.2 SSE 7 7 4 4 - - 0.0
25/08:10am 6.7 4.1 4.4 85 1.0 SSE 7 9 4 5 - - 0.0
25/08:00am 6.7 4.2 4.5 86 1.0 SSE 7 9 4 5 - - 0.0
25/07:50am 6.5 3.9 4.4 86 0.9 SSE 7 9 4 5 - - 0.0
25/07:40am 6.5 4.1 4.4 86 0.9 SSE 6 7 3 4 - - 0.0
25/07:30am 6.4 4.0 4.4 87 0.9 S 6 7 3 4 - - 0.0
25/07:20am 6.4 4.0 4.4 87 0.9 S 6 6 3 3 - - 0.0
25/07:10am 6.4 4.0 4.5 88 0.8 S 6 7 3 4 - - 0.0
25/07:00am 6.6 4.3 4.6 87 0.9 S 6 7 3 4 - - 0.0
25/06:50am 6.6 4.3 4.6 87 0.9 S 6 7 3 4 - - 0.0
25/06:40am 6.6 4.1 4.6 87 0.9 S 7 7 4 4 - - 0.0
25/06:30am 6.6 4.3 4.7 88 0.8 S 6 7 3 4 - - 0.0
25/06:20am 6.6 4.1 4.8 88 0.8 S 7 7 4 4 - - 0.0
25/06:10am 6.8 4.3 4.9 88 0.8 S 7 7 4 4 - - 0.0
25/06:00am 6.8 4.3 4.9 88 0.8 S 7 7 4 4 - - 0.0
25/05:50am 6.8 4.3 5.0 88 0.8 S 7 7 4 4 - - 0.0
25/05:40am 6.9 4.4 5.0 88 0.9 S 7 7 4 4 - - 0.0
25/05:30am 6.9 4.5 5.1 88 0.8 S 7 7 4 4 - - 0.0
25/05:20am 7.3 5.1 5.2 86 0.9 S 6 7 3 4 - - 0.0
25/05:10am 7.9 5.1 5.3 84 1.2 SSE 9 9 5 5 - - 0.0
25/05:00am 7.8 5.0 5.3 84 1.1 SSE 9 9 5 5 - - 0.0
25/04:50am 7.7 5.0 5.4 85 1.0 SE 9 9 5 5 - - 0.0
25/04:40am 7.7 5.4 5.5 86 1.0 SSE 7 9 4 5 - - 0.0
25/04:30am 7.7 5.0 5.6 86 1.0 SSE 9 9 5 5 - - 0.0
25/04:20am 8.0 5.7 5.6 85 1.1 SE 7 9 4 5 - - 0.0
25/04:10am 8.1 5.4 5.8 85 1.1 SE 9 9 5 5 - - 0.0
25/04:00am 8.6 6.3 5.8 82 1.3 SE 7 7 4 4 - - 0.0
25/03:50am 8.8 6.5 5.8 81 1.4 ESE 7 9 4 5 - - 0.0
25/03:40am 8.8 6.5 5.9 82 1.4 ESE 7 7 4 4 - - 0.0
25/03:30am 8.6 6.4 6.0 84 1.2 SE 7 9 4 5 - - 0.0
25/03:20am 8.7 6.1 6.1 84 1.2 SE 9 9 5 5 - - 0.0
25/03:10am 8.7 6.1 6.1 84 1.2 SE 9 11 5 6 - - 0.0
25/03:00am 8.5 5.9 6.2 85 1.1 SE 9 9 5 5 - - 0.0
25/02:50am 8.7 6.1 6.0 83 1.3 SSE 9 9 5 5 - - 0.0
25/02:40am 8.6 6.4 6.3 85 1.1 SSE 7 9 4 5 - - 0.0
25/02:30am 8.6 6.1 6.5 87 1.0 SE 9 9 5 5 - - 0.0
25/02:20am 8.7 6.2 6.4 85 1.1 SE 9 11 5 6 - - 0.0
25/02:10am 8.7 6.2 6.6 87 1.0 SE 9 11 5 6 - - 0.0
25/02:00am 8.8 6.3 6.5 85 1.1 SE 9 11 5 6 - - 0.0
25/01:50am 8.5 6.0 6.6 88 0.9 SE 9 9 5 5 - - 0.0
25/01:40am 8.5 6.0 6.6 88 0.9 SE 9 9 5 5 - - 0.0
25/01:30am 8.6 6.5 6.5 87 1.0 SSE 7 9 4 5 - - 0.0
25/01:20am 8.7 6.5 6.4 85 1.1 SSE 7 9 4 5 - - 0.0
25/01:10am 8.8 6.7 6.6 86 1.0 SE 7 9 4 5 - - 0.0
25/01:00am 9.0 6.5 6.6 85 1.1 SE 9 9 5 5 - - 0.0
25/12:50am 9.1 6.5 6.3 82 1.3 SE 9 9 5 5 - - 0.0
25/12:40am 9.2 6.7 6.4 83 1.3 ESE 9 11 5 6 - - 0.0
25/12:30am 9.1 6.5 6.1 81 1.4 ESE 9 9 5 5 - - 0.0
25/12:20am 8.8 6.6 6.4 85 1.1 SE 7 9 4 5 - - 0.0
25/12:10am 8.9 6.4 6.4 84 1.2 SE 9 9 5 5 - - 0.0
25/12:00am 9.0 6.8 6.3 83 1.3 SE 7 9 4 5 - - 0.0
 
Date/Time
EST
Temp
°C
App
Temp
°C
Dew
Point
°C
Rel
Hum
%
Delta-T
°C
Wind Press
QNH
hPa
Press
MSL
hPa
Rain since
9am
mm
Dir  Spd
km/h
Gust
km/h
Spd
kts
Gust
kts
24/11:50pm 9.0 6.8 6.3 83 1.3 ESE 7 11 4 6 - - 0.0
24/11:40pm 9.0 6.4 6.3 83 1.3 ESE 9 9 5 5 - - 0.0
24/11:30pm 9.1 6.5 6.1 81 1.4 ESE 9 11 5 6 - - 0.0
24/11:20pm 9.2 6.6 5.9 80 1.5 E 9 11 5 6 - - 0.0
24/11:10pm 9.4 6.7 5.8 78 1.7 E 9 9 5 5 - - 0.0
24/11:00pm 9.5 6.4 5.4 75 1.9 ESE 11 13 6 7 - - 0.0
24/10:50pm 9.4 6.3 5.5 76 1.8 ESE 11 13 6 7 - - 0.0
24/10:40pm 9.5 6.4 5.4 75 1.9 ESE 11 13 6 7 - - 0.0
24/10:30pm 9.5 6.3 5.3 75 1.9 ESE 11 13 6 7 - - 0.0
24/10:20pm 9.4 6.2 5.3 75 1.9 ESE 11 13 6 7 - - 0.0
24/10:10pm 9.2 6.5 5.5 77 1.7 ESE 9 11 5 6 - - 0.0
24/10:00pm 9.3 6.2 5.5 77 1.8 ESE 11 13 6 7 - - 0.0
24/09:50pm 9.4 6.3 5.5 76 1.8 ESE 11 13 6 7 - - 0.0
24/09:40pm 9.4 6.3 5.5 76 1.8 ESE 11 13 6 7 - - 0.0
24/09:30pm 9.1 6.1 5.8 80 1.5 ESE 11 13 6 7 - - 0.0
24/09:20pm 8.9 6.3 5.9 81 1.4 ESE 9 9 5 5 - - 0.0
24/09:10pm 8.8 6.1 5.6 80 1.5 ESE 9 9 5 5 - - 0.0
24/09:00pm 8.3 6.0 5.7 84 1.2 SE 7 9 4 5 - - 0.0
24/08:50pm 8.3 6.0 5.6 83 1.2 ESE 7 9 4 5 - - 0.0
24/08:40pm 8.2 5.5 5.5 83 1.2 SE 9 11 5 6 - - 0.0
24/08:30pm 8.2 5.8 5.4 82 1.3 SE 7 9 4 5 - - 0.0
24/08:20pm 8.3 5.9 5.4 82 1.3 ESE 7 9 4 5 - - 0.0
24/08:10pm 8.1 5.8 5.5 84 1.2 ESE 7 7 4 4 - - 0.0
24/08:00pm 7.9 5.6 5.6 85 1.1 ESE 7 7 4 4 - - 0.0
24/07:50pm 8.1 5.8 5.9 86 1.0 SE 7 7 4 4 - - 0.0
24/07:40pm 8.3 6.1 6.0 85 1.1 SE 7 9 4 5 - - 0.0
24/07:30pm 8.5 6.2 5.9 84 1.2 SE 7 9 4 5 - - 0.0
24/07:20pm 8.3 6.1 6.0 85 1.1 SE 7 7 4 4 - - 0.0
24/07:10pm 8.3 6.1 6.0 85 1.1 SE 7 7 4 4 - - 0.0
24/07:00pm 8.3 6.3 6.2 87 1.0 SSE 6 6 3 3 - - 0.0
24/06:50pm 8.3 6.3 6.3 87 0.9 SSE 6 6 3 3 - - 0.0
24/06:40pm 8.7 6.8 6.5 86 1.0 S 6 7 3 4 - - 0.0
24/06:30pm 9.0 7.1 6.7 85 1.1 SSE 6 7 3 4 - - 0.0
24/06:20pm 9.3 7.4 6.6 83 1.3 SSE 6 6 3 3 - - 0.0
24/06:10pm 9.6 8.1 6.7 82 1.4 S 4 6 2 3 - - 0.0
24/06:00pm 9.9 9.1 6.3 78 1.7 CALM 0 0 0 0 - - 0.0
24/05:50pm 9.8 8.9 6.2 78 1.7 CALM 0 0 0 0 - - 0.0
24/05:40pm 9.8 8.9 6.1 78 1.7 CALM 0 0 0 0 - - 0.0
24/05:30pm 10.0 8.3 6.1 77 1.8 ESE 4 6 2 3 - - 0.0
24/05:20pm 10.1 8.1 6.2 77 1.8 SE 6 7 3 4 - - 0.0
24/05:10pm 10.4 8.2 6.3 76 2.0 SE 7 9 4 5 - - 0.0
24/05:00pm 10.7 8.6 6.5 75 2.0 ESE 7 7 4 4 - - 0.0
24/04:50pm 11.1 9.0 6.6 74 2.2 ESE 7 7 4 4 - - 0.0
24/04:40pm 11.4 9.3 6.5 72 2.4 ESE 7 7 4 4 - - 0.0
24/04:30pm 11.7 9.6 6.5 70 2.5 ESE 7 7 4 4 - - 0.0
24/04:20pm 12.0 10.1 6.9 71 2.5 E 6 7 3 4 - - 0.0
24/04:10pm 12.2 10.1 6.6 68 2.7 E 7 7 4 4 - - 0.0
24/04:00pm 12.3 10.4 6.5 67 2.8 E 6 7 3 4 - - 0.0
24/03:50pm 12.3 10.4 6.5 67 2.8 E 6 7 3 4 - - 0.0
24/03:40pm 12.6 10.5 6.7 67 2.9 E 7 7 4 4 - - 0.0
24/03:30pm 13.0 11.1 6.5 64 3.2 E 6 7 3 4 - - 0.0
24/03:20pm 12.8 10.7 6.6 66 3.0 E 7 9 4 5 - - 0.0
24/03:10pm 12.9 11.0 6.7 66 3.0 ENE 6 7 3 4 - - 0.0
24/03:00pm 13.0 11.0 6.3 64 3.3 E 6 7 3 4 - - 0.0
24/02:50pm 13.0 10.9 6.7 65 3.1 ENE 7 11 4 6 - - 0.0
24/02:40pm 13.4 11.2 6.4 62 3.4 E 7 11 4 6 - - 0.0
24/02:30pm 13.2 10.7 6.4 63 3.3 E 9 11 5 6 - - 0.0
24/02:20pm 12.7 10.1 6.2 64 3.1 E 9 11 5 6 - - 0.0
24/02:10pm 12.4 9.9 6.5 67 2.9 E 9 11 5 6 - - 0.0
24/02:00pm 12.4 9.8 6.0 65 3.1 E 9 13 5 7 - - 0.0
24/01:50pm 12.4 9.8 6.1 65 3.0 E 9 11 5 6 - - 0.0
24/01:40pm 12.3 9.3 5.9 65 3.1 E 11 13 6 7 - - 0.0
24/01:30pm 12.3 9.2 5.7 64 3.1 E 11 13 6 7 - - 0.0
24/01:20pm 12.4 9.8 6.3 66 2.9 ESE 9 13 5 7 - - 0.0
24/01:10pm 12.5 10.0 6.4 66 3.0 ESE 9 9 5 5 - - 0.0
24/01:00pm 12.3 9.3 5.9 65 3.1 E 11 13 6 7 - - 0.0
24/12:50pm 12.1 8.7 5.7 65 3.0 E 13 15 7 8 - - 0.0
24/12:40pm 12.2 8.8 5.7 64 3.1 ESE 13 17 7 9 - - 0.0
24/12:30pm 12.3 9.2 5.7 64 3.1 E 11 15 6 8 - - 0.0
24/12:20pm 12.1 9.1 5.9 66 3.0 E 11 13 6 7 - - 0.0
24/12:10pm 11.9 9.8 6.5 69 2.6 ESE 7 11 4 6 - - 0.0
24/12:00pm 11.7 9.4 5.8 67 2.8 ESE 7 9 4 5 - - 0.0
24/11:50am 11.5 8.8 5.6 67 2.8 E 9 13 5 7 - - 0.0
24/11:40am 11.4 8.4 5.8 68 2.7 E 11 13 6 7 - - 0.0
24/11:30am 11.3 8.3 5.8 69 2.6 E 11 13 6 7 - - 0.0
24/11:20am 11.3 8.3 5.8 69 2.6 E 11 13 6 7 - - 0.0
24/11:10am 11.2 8.1 5.7 69 2.6 E 11 15 6 8 - - 0.0
24/11:00am 11.1 8.1 5.9 70 2.5 E 11 13 6 7 - - 0.0
24/10:50am 10.9 7.9 5.8 71 2.4 ESE 11 15 6 8 - - 0.0
24/10:40am 10.7 7.7 6.1 73 2.2 ESE 11 13 6 7 - - 0.0
24/10:30am 10.6 7.5 5.5 71 2.4 ESE 11 13 6 7 - - 0.0
24/10:20am 10.5 7.5 5.8 72 2.2 ESE 11 13 6 7 - - 0.0
24/10:10am 10.3 7.3 5.8 73 2.1 E 11 13 6 7 - - 0.0
24/10:00am 10.1 7.0 5.6 73 2.1 - 11 13 6 7 - - 0.0
24/09:50am 10.0 7.0 5.9 75 1.9 ESE 11 13 6 7 - - 0.0
24/09:40am 9.8 6.6 5.3 73 2.1 ESE 11 13 6 7 - - 0.0
24/09:30am 9.7 6.6 5.4 74 2.0 ESE 11 11 6 6 - - 0.0
24/09:20am 9.6 6.0 4.8 72 2.2 ESE 13 15 7 8 - - 0.0
24/09:10am 9.5 6.0 5.3 75 1.9 ESE 13 15 7 8 - - 0.0
24/09:00am 9.5 5.5 4.9 73 2.1 ESE 15 19 8 10 - - 7.2
24/08:50am 9.5 5.5 4.9 73 2.1 ESE 15 17 8 9 - - 7.2
24/08:40am 9.4 5.9 5.5 76 1.8 E 13 17 7 9 - - 7.2
24/08:30am 9.4 5.8 5.1 74 2.0 E 13 15 7 8 - - 7.2
24/08:20am 9.3 5.7 5.1 75 1.9 E 13 15 7 8 - - 7.2
24/08:10am 9.3 5.7 5.0 74 2.0 E 13 13 7 7 - - 7.2
24/08:00am 9.2 6.0 5.2 76 1.8 E 11 13 6 7 - - 7.2
24/07:50am 9.1 5.5 5.2 76 1.8 E 13 17 7 9 - - 7.2
24/07:40am 9.0 5.4 5.1 76 1.8 E 13 15 7 8 - - 7.2
24/07:30am 9.1 5.2 5.3 77 1.7 ESE 15 17 8 9 - - 7.2
24/07:20am 9.0 5.0 5.1 76 1.8 ESE 15 17 8 9 - - 7.2
24/07:10am 9.1 5.2 5.2 76 1.8 ESE 15 17 8 9 - - 7.2
24/07:00am 9.1 5.1 5.1 76 1.8 ESE 15 17 8 9 - - 7.2
24/06:50am 9.0 5.5 5.3 77 1.7 ESE 13 13 7 7 - - 7.2
24/06:40am 8.9 5.4 5.3 78 1.7 ESE 13 15 7 8 - - 7.2
24/06:30am 8.9 5.4 5.3 78 1.7 ESE 13 15 7 8 - - 7.2
24/06:20am 8.9 5.4 5.5 79 1.6 ESE 13 17 7 9 - - 7.2
24/06:10am 9.0 5.1 5.3 77 1.7 ESE 15 17 8 9 - - 7.2
24/06:00am 8.8 5.3 5.3 79 1.6 ESE 13 15 7 8 - - 7.2
24/05:50am 8.6 5.5 5.6 81 1.4 ESE 11 13 6 7 - - 7.2
24/05:40am 8.6 5.1 5.5 81 1.4 E 13 15 7 8 - - 7.2
24/05:30am 8.5 4.6 5.5 81 1.4 E 15 19 8 10 - - 7.2
24/05:20am 8.3 4.5 5.6 83 1.2 ESE 15 17 8 9 - - 7.2
24/05:10am 8.1 4.3 5.6 84 1.1 E 15 17 8 9 - - 7.2
24/05:00am 8.0 4.2 5.9 86 1.0 E 15 17 8 9 - - 7.2
24/04:50am 8.1 4.7 5.8 85 1.1 E 13 17 7 9 - - 7.2
24/04:40am 8.1 4.8 6.2 88 0.9 E 13 15 7 8 - - 7.2
24/04:30am 8.3 4.9 6.1 86 1.0 ESE 13 15 7 8 - - 7.2
24/04:20am 8.2 5.7 6.4 88 0.8 E 9 11 5 6 - - 7.2
24/04:10am 8.3 5.8 6.6 89 0.8 E 9 11 5 6 - - 7.2
24/04:00am 8.4 5.5 6.7 89 0.8 ESE 11 15 6 8 - - 7.2
24/03:50am 8.3 5.5 7.0 91 0.6 E 11 13 6 7 - - 7.2
24/03:40am 8.7 5.5 6.9 88 0.9 ESE 13 17 7 9 - - 7.2
24/03:30am 8.7 6.0 7.3 91 0.7 ESE 11 15 6 8 - - 7.2
24/03:20am 8.7 6.4 7.4 91 0.6 ESE 9 11 5 6 - - 7.2
24/03:10am 8.8 6.5 7.5 91 0.6 SE 9 11 5 6 - - 7.2
24/03:00am 8.8 5.8 7.6 92 0.6 ESE 13 13 7 7 - - 7.2
24/02:50am 8.8 5.8 7.7 93 0.5 E 13 17 7 9 - - 7.2
24/02:40am 8.8 5.1 7.9 94 0.4 - 17 19 9 10 - - 7.2
24/02:30am 8.9 5.6 8.1 95 0.4 E 15 19 8 10 - - 7.2
24/02:20am 9.0 5.7 8.2 95 0.4 E 15 17 8 9 - - 7.2
24/02:10am 9.1 5.8 8.2 94 0.4 E 15 17 8 9 - - 7.2
24/02:00am 9.1 5.5 8.3 95 0.4 E 17 22 9 12 - - 7.2
24/01:50am 9.2 6.0 8.5 95 0.3 E 15 17 8 9 - - 7.2

Other formats

Comma delimited format used in spreadsheet applications
http://www.bom.gov.au/fwo/IDT60801/IDT60801.99137.axf

JavaScript Object Notation format (JSON) in row-major order
http://www.bom.gov.au/fwo/IDT60801/IDT60801.99137.json

Data quality

Most of these data are generated automatically and are frequently updated. Quality checks on data are not normally performed. It is possible for incorrect values to appear. Refer to information at About Latest Weather Observations and please check the disclaimer before using these data.